Time;durP1;ratioP1;P1;durP2;ratioP2;P2;SDS_P1;SDS_P2;PMS_P1;PMS_P2;Temp;Humidity;BMP_temperature;BMP_pressure;BME280_temperature;BME280_humidity;BME280_pressure;Samples;Min_cycle;Max_cycle;Signal;HPM_P1;HPM_P2
2022/11/19 00:01:03;;;;;;;2.30;0.70;;;;;;;5.96;100.00;95456.38;5018552;28;102395;-64
2022/11/19 00:03:33;;;;;;;0.60;0.60;;;;;;;5.95;100.00;95452.91;5004596;28;105705;-64
2022/11/19 00:06:22;;;;;;;0.90;0.77;;;;;;;5.94;100.00;95450.53;5007864;28;103170;-64
2022/11/19 00:08:49;;;;;;;0.57;0.57;;;;;;;5.91;100.00;95449.19;5021558;28;102293;-64
2022/11/19 00:12:53;;;;;;;0.83;0.70;;;;;;;5.94;100.00;95453.97;5005853;28;102915;-64
2022/11/19 00:14:03;;;;;;;0.60;0.60;;;;;;;5.90;100.00;95463.41;5001876;27;102310;-64
2022/11/19 00:16:30;;;;;;;1.73;0.73;;;;;;;5.93;100.00;95448.94;5014708;27;102402;-64
2022/11/19 00:18:57;;;;;;;1.57;0.67;;;;;;;5.91;100.00;95451.84;5021044;27;103978;-64
2022/11/19 00:21:26;;;;;;;0.60;0.60;;;;;;;5.92;100.00;95450.78;5011565;27;102277;-64
2022/11/19 00:23:54;;;;;;;0.80;0.70;;;;;;;5.92;100.00;95452.59;5019661;28;103368;-64
2022/11/19 00:26:21;;;;;;;1.63;0.80;;;;;;;5.89;100.00;95456.53;5014074;28;105286;-64
2022/11/19 00:28:48;;;;;;;0.77;0.77;;;;;;;5.91;100.00;95451.03;5014380;28;102078;-64
2022/11/19 00:31:16;;;;;;;1.80;0.60;;;;;;;5.88;100.00;95451.50;5019067;28;105797;-64
2022/11/19 00:33:58;;;;;;;1.03;0.80;;;;;;;5.86;100.00;95453.59;5023138;28;101983;-64
2022/11/19 00:36:32;;;;;;;0.73;0.50;;;;;;;5.86;100.00;95454.41;5008751;28;105158;-64
2022/11/19 00:38:59;;;;;;;1.93;0.87;;;;;;;5.91;100.00;95445.75;5012366;28;105322;-64
2022/11/19 00:41:27;;;;;;;2.50;0.80;;;;;;;5.92;100.00;95449.97;5013093;27;103630;-64
2022/11/19 00:43:54;;;;;;;0.70;0.70;;;;;;;5.95;100.00;95452.91;5026398;27;102466;-64
2022/11/19 00:46:23;;;;;;;0.63;0.60;;;;;;;5.95;100.00;95449.50;5012616;28;102701;-64
2022/11/19 00:48:52;;;;;;;0.63;0.63;;;;;;;5.95;100.00;95447.63;5029912;27;102305;-64
2022/11/19 00:51:20;;;;;;;0.67;0.60;;;;;;;5.96;100.00;95449.25;5028400;28;103092;-64
2022/11/19 00:53:49;;;;;;;1.00;0.53;;;;;;;5.95;100.00;95452.13;5006153;28;101880;-64
2022/11/19 00:56:19;;;;;;;1.00;0.73;;;;;;;5.91;100.00;95456.28;5026185;28;102579;-64
2022/11/19 00:58:46;;;;;;;0.70;0.70;;;;;;;5.91;100.00;95464.22;5016223;28;102586;-64
2022/11/19 01:01:14;;;;;;;1.13;0.63;;;;;;;5.92;100.00;95457.88;5026116;28;101896;-64
2022/11/19 01:03:45;;;;;;;1.40;0.70;;;;;;;5.86;100.00;95459.69;5014614;28;105209;-64
2022/11/19 01:06:59;;;;;;;1.00;0.60;;;;;;;5.90;100.00;95459.97;5032565;28;101912;-64
2022/11/19 01:09:28;;;;;;;0.70;0.70;;;;;;;5.90;100.00;95457.34;5048056;27;101985;-64
2022/11/19 01:12:05;;;;;;;1.10;0.70;;;;;;;5.93;100.00;95449.72;5014885;28;105690;-64
2022/11/19 01:14:32;;;;;;;1.67;1.10;;;;;;;5.91;100.00;95445.75;5035603;28;103217;-64
2022/11/19 01:16:59;;;;;;;0.70;0.70;;;;;;;5.86;100.00;95441.22;5014921;28;105561;-64
2022/11/19 01:19:26;;;;;;;0.80;0.80;;;;;;;5.89;100.00;95445.97;5013813;28;105674;-64
2022/11/19 01:21:54;;;;;;;1.57;0.73;;;;;;;5.91;100.00;95441.28;5032696;28;101907;-64
2022/11/19 01:24:21;;;;;;;0.83;0.77;;;;;;;5.97;100.00;95442.13;5014311;28;105296;-64
2022/11/19 01:26:49;;;;;;;0.90;0.90;;;;;;;5.97;100.00;95445.56;5013819;28;105345;-64
2022/11/19 01:29:16;;;;;;;1.13;1.03;;;;;;;6.02;100.00;95456.19;5032207;28;101830;-64
2022/11/19 01:31:48;;;;;;;0.77;0.77;;;;;;;5.94;100.00;95453.19;5032777;28;102760;-64
2022/11/19 01:34:14;;;;;;;0.60;0.60;;;;;;;5.88;100.00;95460.22;5013617;28;104202;-64
2022/11/19 01:36:54;;;;;;;0.80;0.73;;;;;;;5.89;100.00;95461.03;5035822;27;101850;-64
2022/11/19 01:39:22;;;;;;;0.87;0.80;;;;;;;5.83;100.00;95459.38;5031712;28;103089;-64
2022/11/19 01:41:55;;;;;;;0.77;0.73;;;;;;;5.86;100.00;95458.88;5032613;28;102292;-64
2022/11/19 01:45:01;;;;;;;0.87;0.80;;;;;;;5.85;100.00;95452.00;5031817;28;102917;-64
2022/11/19 01:47:28;;;;;;;1.17;0.80;;;;;;;5.82;100.00;95447.19;5031407;28;103068;-64
2022/11/19 01:49:55;;;;;;;0.97;0.80;;;;;;;5.82;100.00;95453.28;5032412;28;101874;-64
2022/11/19 01:52:39;;;;;;;0.70;0.70;;;;;;;5.70;100.00;95449.09;5013860;28;105567;-64
2022/11/19 01:55:09;;;;;;;0.90;0.80;;;;;;;5.71;100.00;95453.34;5031855;28;102606;-64
2022/11/19 01:57:39;;;;;;;0.80;0.80;;;;;;;5.66;100.00;95455.91;5031784;28;101826;-64
2022/11/19 02:00:08;;;;;;;1.23;1.10;;;;;;;5.65;100.00;95463.03;5017029;28;103661;-64
2022/11/19 02:02:42;;;;;;;1.43;0.80;;;;;;;5.63;100.00;95464.31;5031788;28;102201;-64
2022/11/19 02:05:51;;;;;;;1.17;1.03;;;;;;;5.57;100.00;95460.78;5032068;28;102490;-64
2022/11/19 02:08:40;;;;;;;0.80;0.80;;;;;;;5.53;100.00;95464.16;5031374;28;102794;-64
2022/11/19 02:11:38;;;;;;;0.70;0.70;;;;;;;5.46;100.00;95460.91;5032294;28;101748;-64
2022/11/19 02:14:24;;;;;;;0.80;0.80;;;;;;;5.38;100.00;95466.56;5011215;28;105784;-64
2022/11/19 02:17:02;;;;;;;0.80;0.80;;;;;;;5.38;100.00;95461.28;5013101;28;105437;-64
2022/11/19 02:19:51;;;;;;;1.33;1.20;;;;;;;5.33;100.00;95469.13;5031976;28;102170;-64
2022/11/19 02:26:01;;;;;;;1.00;1.00;;;;;;;5.29;100.00;95468.03;5016097;28;104345;-64
2022/11/19 02:28:34;;;;;;;1.33;1.20;;;;;;;5.26;100.00;95461.38;5031851;28;102927;-64
2022/11/19 02:31:09;;;;;;;1.30;1.20;;;;;;;5.28;100.00;95472.47;4992942;28;106897;-64
2022/11/19 02:33:49;;;;;;;0.90;0.90;;;;;;;5.25;100.00;95464.25;5030829;28;101929;-64
2022/11/19 02:36:30;;;;;;;1.73;1.10;;;;;;;5.24;100.00;95465.28;5031529;28;102339;-64
2022/11/19 02:39:02;;;;;;;1.10;1.10;;;;;;;5.20;100.00;95470.25;5030781;27;102889;-64
2022/11/19 02:41:46;;;;;;;1.67;1.10;;;;;;;5.15;100.00;95479.91;5031874;28;101813;-64
2022/11/19 02:47:12;;;;;;;1.20;1.10;;;;;;;5.04;100.00;95481.56;5029326;27;104299;-64
2022/11/19 02:49:43;;;;;;;1.47;1.37;;;;;;;5.08;100.00;95480.03;5034894;28;101801;-64
2022/11/19 02:52:30;;;;;;;1.43;1.20;;;;;;;5.06;100.00;95484.75;5012542;28;105460;-64
2022/11/19 02:54:57;;;;;;;1.30;1.20;;;;;;;5.07;100.00;95483.72;5031373;28;101789;-64
2022/11/19 02:57:23;;;;;;;0.90;0.90;;;;;;;5.11;100.00;95486.66;5031253;28;102843;-64
2022/11/19 03:05:56;;;;;;;0.90;0.90;;;;;;;5.04;100.00;95501.84;5012797;28;105711;-64
2022/11/19 03:08:23;;;;;;;0.97;0.97;;;;;;;5.05;100.00;95498.97;5012128;28;105512;-64
2022/11/19 03:10:58;;;;;;;1.20;1.10;;;;;;;5.03;100.00;95495.75;5034093;28;101791;-64
2022/11/19 03:16:53;;;;;;;2.23;1.57;;;;;;;4.98;100.00;95492.25;5012529;28;102140;-64
2022/11/19 03:19:33;;;;;;;3.13;1.37;;;;;;;4.99;100.00;95499.94;5012616;28;105646;-64
2022/11/19 03:22:16;;;;;;;4.33;1.40;;;;;;;5.01;100.00;95500.47;5012055;28;105914;-64
2022/11/19 03:24:48;;;;;;;1.73;1.63;;;;;;;5.05;100.00;95506.88;5012437;28;101725;-64
2022/11/19 03:27:20;;;;;;;1.77;1.40;;;;;;;5.06;100.00;95499.75;5012605;28;105242;-64
2022/11/19 03:29:52;;;;;;;1.80;1.30;;;;;;;5.02;100.00;95503.94;5011823;28;105828;-64
2022/11/19 03:32:29;;;;;;;1.37;1.27;;;;;;;5.02;100.00;95509.19;5031000;28;101843;-64
2022/11/19 03:35:07;;;;;;;1.87;1.40;;;;;;;5.05;100.00;95513.97;5033513;28;102951;-64
2022/11/19 03:37:37;;;;;;;1.57;1.47;;;;;;;4.99;100.00;95512.28;5012430;28;102340;-64
2022/11/19 03:40:07;;;;;;;2.00;1.80;;;;;;;4.98;100.00;95511.50;5011989;28;105601;-64
2022/11/19 03:42:40;;;;;;;1.90;1.80;;;;;;;5.04;100.00;95517.66;5011705;28;103782;-64
2022/11/19 03:45:13;;;;;;;3.30;2.00;;;;;;;4.98;100.00;95519.41;5016847;28;102392;-64
2022/11/19 03:47:43;;;;;;;2.00;1.80;;;;;;;4.97;100.00;95523.06;5030554;27;103028;-64
2022/11/19 03:50:21;;;;;;;2.90;1.97;;;;;;;4.94;100.00;95517.47;5029582;27;102678;-64
2022/11/19 03:52:55;;;;;;;2.30;2.20;;;;;;;4.93;100.00;95515.88;5030551;28;102063;-65
2022/11/19 03:55:31;;;;;;;2.97;2.30;;;;;;;4.90;100.00;95522.41;4992292;28;105690;-64
2022/11/19 03:58:02;;;;;;;3.50;2.27;;;;;;;4.95;100.00;95519.88;4996268;28;105285;-64
2022/11/19 04:00:29;;;;;;;3.70;2.47;;;;;;;4.90;100.00;95522.41;5030700;28;102416;-64
2022/11/19 04:02:58;;;;;;;4.13;2.40;;;;;;;4.90;100.00;95522.41;5011152;28;104179;-64
2022/11/19 04:05:27;;;;;;;3.27;2.40;;;;;;;4.95;100.00;95529.59;5030513;28;101793;-64
2022/11/19 04:07:54;;;;;;;3.27;2.37;;;;;;;4.95;100.00;95529.59;5030023;28;102830;-64
2022/11/19 04:10:21;;;;;;;2.43;2.23;;;;;;;4.90;100.00;95529.50;5011275;28;104976;-64
2022/11/19 04:12:49;;;;;;;4.37;2.67;;;;;;;4.97;100.00;95515.16;5011456;28;101884;-64
2022/11/19 04:15:16;;;;;;;3.03;2.63;;;;;;;4.97;100.00;95522.28;5028540;28;102625;-64
2022/11/19 04:17:43;;;;;;;4.37;3.13;;;;;;;4.99;100.00;95514.91;5029667;28;103132;-64
2022/11/19 04:20:11;;;;;;;4.70;2.93;;;;;;;5.01;100.00;95518.91;5033190;28;101924;-64
2022/11/19 04:23:01;;;;;;;4.20;3.40;;;;;;;5.04;100.00;95517.66;5029387;28;103157;-64
2022/11/19 04:25:28;;;;;;;4.93;3.20;;;;;;;5.06;100.00;95510.28;5011617;28;102045;-64
2022/11/19 04:27:56;;;;;;;3.80;3.33;;;;;;;5.07;100.00;95517.97;5011590;28;105501;-64
2022/11/19 04:30:23;;;;;;;4.47;3.80;;;;;;;5.07;100.00;95511.91;5011195;28;105716;-64
2022/11/19 04:33:14;;;;;;;5.33;3.70;;;;;;;5.16;100.00;95518.38;5011736;28;101963;-64
2022/11/19 04:35:44;;;;;;;5.53;3.80;;;;;;;5.20;100.00;95516.88;5030308;28;102088;-64
2022/11/19 04:38:13;;;;;;;3.97;3.63;;;;;;;5.23;100.00;95521.69;5028594;28;102550;-64
2022/11/19 04:40:41;;;;;;;4.97;3.80;;;;;;;5.25;100.00;95522.22;5011818;28;102089;-64
2022/11/19 04:43:25;;;;;;;4.97;3.53;;;;;;;5.29;100.00;95520.72;5014263;28;105791;-64
2022/11/19 04:45:52;;;;;;;4.43;4.03;;;;;;;5.27;100.00;95523.59;5011503;28;102002;-64
2022/11/19 04:48:19;;;;;;;4.63;4.23;;;;;;;5.26;100.00;95522.00;5029683;28;102854;-64
2022/11/19 04:50:46;;;;;;;4.20;3.80;;;;;;;5.32;100.00;95522.88;5029120;28;102669;-64
2022/11/19 04:53:15;;;;;;;4.47;4.07;;;;;;;5.35;100.00;95525.81;5011152;28;101856;-64
2022/11/19 04:55:42;;;;;;;5.20;4.70;;;;;;;5.37;100.00;95526.41;5029834;28;102907;-64
2022/11/19 04:58:10;;;;;;;4.60;4.20;;;;;;;5.39;100.00;95526.97;5028394;28;102658;-64
2022/11/19 05:00:37;;;;;;;4.47;4.07;;;;;;;5.37;100.00;95520.31;5010781;28;103666;-64
2022/11/19 05:03:43;;;;;;;4.50;3.77;;;;;;;5.36;100.00;95526.63;5011233;28;106145;-64
2022/11/19 05:06:47;;;;;;;4.40;4.00;;;;;;;5.43;100.00;95511.47;5031906;28;101945;-64
2022/11/19 05:09:15;;;;;;;4.33;4.00;;;;;;;5.36;100.00;95516.88;5021143;27;102576;-64
2022/11/19 05:11:42;;;;;;;4.77;4.37;;;;;;;5.37;100.00;95512.41;5013707;28;103910;-64
2022/11/19 05:14:09;;;;;;;5.30;4.83;;;;;;;5.38;100.00;95524.56;5032991;28;102130;-64
2022/11/19 05:16:36;;;;;;;5.07;4.57;;;;;;;5.40;100.00;95518.00;5033025;28;102486;-64
2022/11/19 05:19:03;;;;;;;4.97;4.57;;;;;;;5.43;100.00;95528.09;5031920;28;102784;-64
2022/11/19 05:21:30;;;;;;;5.80;5.30;;;;;;;5.48;100.00;95527.34;5032811;28;101824;-64
2022/11/19 05:23:57;;;;;;;5.20;4.70;;;;;;;5.51;100.00;95514.50;5032547;28;102527;-64
2022/11/19 05:26:25;;;;;;;5.23;4.73;;;;;;;5.51;100.00;95519.75;5017412;28;105365;-64
2022/11/19 05:28:52;;;;;;;5.57;4.80;;;;;;;5.46;100.00;95526.81;5032281;28;102296;-64
2022/11/19 05:31:19;;;;;;;5.63;4.93;;;;;;;5.49;100.00;95527.13;5032098;28;102774;-64
2022/11/19 05:34:25;;;;;;;5.10;4.67;;;;;;;5.51;100.00;95530.31;5014277;28;101779;-64
2022/11/19 05:36:54;;;;;;;5.60;5.10;;;;;;;5.54;100.00;95521.13;5032490;28;102829;-64
2022/11/19 05:39:21;;;;;;;5.77;5.20;;;;;;;5.57;100.00;95528.56;5013608;28;104280;-64
2022/11/19 05:42:13;;;;;;;5.53;5.03;;;;;;;5.59;100.00;95529.13;5032196;28;102040;-64
2022/11/19 05:44:40;;;;;;;6.13;5.53;;;;;;;5.60;100.00;95525.44;5032852;28;102544;-64
2022/11/19 05:47:07;;;;;;;5.67;5.10;;;;;;;5.64;100.00;95523.94;5031174;28;102725;-64
2022/11/19 05:49:34;;;;;;;6.17;5.57;;;;;;;5.66;100.00;95535.03;5017500;28;101923;-64
2022/11/19 05:52:02;;;;;;;6.87;6.20;;;;;;;5.73;100.00;95535.69;5031670;28;103087;-64
2022/11/19 05:54:29;;;;;;;7.20;5.50;;;;;;;5.75;100.00;95544.13;5032491;28;101675;-64
2022/11/19 05:56:56;;;;;;;6.37;5.73;;;;;;;5.72;100.00;95539.38;5031928;28;102328;-64
2022/11/19 05:59:25;;;;;;;6.30;5.70;;;;;;;5.73;100.00;95538.31;5031497;28;102600;-64
2022/11/19 06:02:00;;;;;;;7.33;5.77;;;;;;;5.76;100.00;95543.91;5032276;28;102017;-64
2022/11/19 06:04:26;;;;;;;8.20;6.87;;;;;;;5.79;100.00;95537.34;5032109;28;102568;-64
2022/11/19 06:07:31;;;;;;;7.90;7.00;;;;;;;5.79;100.00;95538.13;5031422;28;102573;-64
2022/11/19 06:09:58;;;;;;;7.57;6.30;;;;;;;5.79;100.00;95540.00;5032110;28;102055;-64
2022/11/19 06:15:49;;;;;;;7.43;6.70;;;;;;;5.74;100.00;95550.47;5013660;28;102134;-64
2022/11/19 06:18:16;;;;;;;7.30;6.60;;;;;;;5.71;100.00;95551.75;5031584;28;102376;-64
2022/11/19 06:20:43;;;;;;;7.30;6.60;;;;;;;5.74;100.00;95561.78;5012690;28;105679;-64
2022/11/19 06:23:12;;;;;;;7.50;6.63;;;;;;;5.74;100.00;95555.75;5030517;28;102189;-64
2022/11/19 06:25:40;;;;;;;7.53;6.63;;;;;;;5.77;100.00;95561.31;5031733;28;102783;-64
2022/11/19 06:28:07;;;;;;;8.50;6.57;;;;;;;5.76;100.00;95572.09;5030857;28;103160;-64
2022/11/19 06:30:34;;;;;;;7.33;6.63;;;;;;;5.78;100.00;95567.41;5013400;28;102057;-64
2022/11/19 06:33:14;;;;;;;7.13;6.43;;;;;;;5.80;100.00;95571.44;5013382;28;105563;-64
2022/11/19 06:39:05;;;;;;;7.50;6.60;;;;;;;5.86;100.00;95569.66;5031282;28;102840;-64
2022/11/19 06:41:32;;;;;;;9.13;6.77;;;;;;;5.90;100.00;95568.16;5031052;28;102705;-64
2022/11/19 06:43:59;;;;;;;8.37;6.60;;;;;;;5.94;100.00;95579.84;5031105;28;101873;-64
2022/11/19 06:46:26;;;;;;;8.83;6.87;;;;;;;5.91;100.00;95577.66;5012452;28;106226;-64
2022/11/19 06:48:54;;;;;;;7.83;6.70;;;;;;;5.93;100.00;95578.22;5012260;28;105644;-64
2022/11/19 06:51:22;;;;;;;25.67;18.90;;;;;;;5.95;100.00;95584.06;5030679;28;101808;-64
2022/11/19 06:53:51;;;;;;;8.37;6.37;;;;;;;5.97;100.00;95582.78;5012019;28;105692;-64
2022/11/19 06:56:18;;;;;;;6.70;6.10;;;;;;;6.01;100.00;95589.16;5012367;28;106261;-64
2022/11/19 06:58:46;;;;;;;10.00;8.07;;;;;;;6.04;100.00;95587.88;5034475;28;101863;-64
2022/11/19 07:01:14;;;;;;;7.90;7.10;;;;;;;6.04;100.00;95587.88;5012146;28;103771;-64
2022/11/19 07:03:43;;;;;;;6.73;6.03;;;;;;;6.10;100.00;95597.47;5013020;28;101871;-64
2022/11/19 07:06:16;;;;;;;6.90;6.20;;;;;;;6.06;100.00;95597.16;5031335;28;102425;-64
2022/11/19 07:08:43;;;;;;;7.40;6.57;;;;;;;6.09;100.00;95601.16;5012387;28;105259;-64
2022/11/19 07:14:03;;;;;;;6.93;6.23;;;;;;;6.20;100.00;95598.44;4965931;28;105454;-64
2022/11/19 07:16:31;;;;;;;6.90;6.20;;;;;;;6.23;100.00;95607.72;5012137;28;106276;-64
2022/11/19 07:18:59;;;;;;;7.57;5.93;;;;;;;6.25;100.00;95605.63;5016003;28;102059;-65
2022/11/19 07:21:29;;;;;;;6.93;6.23;;;;;;;6.29;100.00;95601.47;5030015;28;102504;-64
2022/11/19 07:23:57;;;;;;;7.60;6.50;;;;;;;6.29;100.00;95612.00;5031081;28;102153;-64
2022/11/19 07:26:25;;;;;;;6.60;5.90;;;;;;;6.26;100.00;95607.22;5030574;28;103350;-64
2022/11/19 07:28:52;;;;;;;7.13;6.10;;;;;;;6.28;100.00;95615.69;5030236;28;102928;-64
2022/11/19 07:31:19;;;;;;;7.10;6.40;;;;;;;6.33;100.00;95603.34;5012263;28;102377;-64
2022/11/19 07:34:06;;;;;;;7.23;6.53;;;;;;;6.32;100.00;95611.53;5012167;28;104078;-64
2022/11/19 07:37:14;;;;;;;7.03;6.33;;;;;;;6.42;100.00;95612.47;5030137;28;104168;-64
2022/11/19 07:39:45;;;;;;;6.70;6.10;;;;;;;6.46;100.00;95612.78;5030295;28;101841;-64
2022/11/19 07:45:09;;;;;;;7.20;6.50;;;;;;;6.52;100.00;95609.16;5012180;28;101971;-64
2022/11/19 07:47:35;;;;;;;6.80;6.10;;;;;;;6.50;100.00;95613.91;5029907;28;102392;-64
2022/11/19 07:50:03;;;;;;;6.87;6.17;;;;;;;6.57;100.00;95614.53;5029973;28;102469;-64
2022/11/19 07:53:18;;;;;;;6.67;6.07;;;;;;;6.55;100.00;95621.91;5025157;28;102078;-64
2022/11/19 07:55:47;;;;;;;7.97;7.20;;;;;;;6.52;100.00;95617.91;5010526;28;102365;-64
2022/11/19 07:58:14;;;;;;;7.90;6.73;;;;;;;6.64;100.00;95618.59;4991175;28;105673;-65
2022/11/19 08:00:42;;;;;;;7.80;6.43;;;;;;;6.60;100.00;95620.09;5010004;28;101994;-64
2022/11/19 08:06:39;;;;;;;8.30;6.27;;;;;;;6.67;100.00;95614.66;4999000;28;102793;-65
2022/11/19 08:09:06;;;;;;;7.40;6.70;;;;;;;6.70;100.00;95619.47;5010018;28;102297;-65
2022/11/19 08:12:02;;;;;;;6.70;6.10;;;;;;;6.78;100.00;95611.91;5009592;28;102560;-64
2022/11/19 08:14:29;;;;;;;6.70;6.03;;;;;;;6.77;100.00;95610.28;5011689;28;102316;-64
2022/11/19 08:19:40;;;;;;;7.20;5.63;;;;;;;6.92;100.00;95613.13;5029613;28;104810;-64
2022/11/19 08:22:16;;;;;;;6.40;5.80;;;;;;;6.92;100.00;95607.06;5029946;28;102150;-64
2022/11/19 08:24:44;;;;;;;6.40;5.80;;;;;;;7.04;100.00;95610.38;5030209;28;102449;-64
2022/11/19 08:27:13;;;;;;;6.47;5.87;;;;;;;7.03;100.00;95619.34;5010999;28;105231;-64
2022/11/19 08:29:40;;;;;;;6.97;6.27;;;;;;;6.95;100.00;95619.78;5014892;28;101939;-64
2022/11/19 08:32:20;;;;;;;7.00;5.70;;;;;;;6.88;100.00;95619.16;5010770;28;105959;-64
2022/11/19 08:34:52;;;;;;;6.40;5.80;;;;;;;6.87;100.00;95615.72;5029751;28;101998;-64
2022/11/19 08:37:18;;;;;;;5.70;5.20;;;;;;;6.91;100.00;95621.28;5011440;28;105213;-65
2022/11/19 08:39:45;;;;;;;6.40;5.80;;;;;;;6.91;100.00;95626.59;5029183;28;103274;-65
2022/11/19 08:43:02;;;;;;;6.00;5.50;;;;;;;6.86;100.00;95623.88;5011401;28;101929;-64
2022/11/19 08:45:33;;;;;;;6.40;5.80;;;;;;;6.88;100.00;95637.66;5030606;27;102889;-65
2022/11/19 08:48:02;;;;;;;6.27;5.67;;;;;;;6.91;100.00;95630.03;4994593;28;104693;-65
2022/11/19 08:50:30;;;;;;;6.27;5.67;;;;;;;6.89;100.00;95633.97;5013100;28;102190;-65
2022/11/19 08:53:16;;;;;;;6.50;5.40;;;;;;;6.83;100.00;95633.09;5015868;28;102438;-65
2022/11/19 08:55:43;;;;;;;6.17;5.67;;;;;;;6.89;100.00;95634.78;4995279;28;101897;-65
2022/11/19 08:58:11;;;;;;;5.70;5.10;;;;;;;6.87;100.00;95642.13;4998980;28;105792;-65
2022/11/19 09:00:39;;;;;;;5.63;5.13;;;;;;;7.04;100.00;95644.72;5014213;28;106465;-65
2022/11/19 09:03:09;;;;;;;5.50;4.97;;;;;;;6.95;100.00;95644.38;5015045;28;101888;-65
2022/11/19 09:06:00;;;;;;;4.87;4.47;;;;;;;7.08;100.00;95651.09;5033283;28;102885;-65
2022/11/19 09:08:27;;;;;;;4.77;4.37;;;;;;;6.97;100.00;95652.84;5013959;28;105261;-65
2022/11/19 09:10:54;;;;;;;5.37;4.87;;;;;;;7.09;100.00;95645.56;5032877;28;102185;-62
2022/11/19 09:13:57;;;;;;;5.43;4.70;;;;;;;7.07;100.00;95646.88;5032813;28;102299;-61
2022/11/19 09:16:25;;;;;;;5.37;4.87;;;;;;;7.09;100.00;95645.56;5017477;28;105905;-61
2022/11/19 09:18:53;;;;;;;4.27;3.90;;;;;;;7.21;100.00;95642.81;5014724;28;103597;-64
2022/11/19 09:21:20;;;;;;;4.87;3.50;;;;;;;7.28;100.00;95652.16;5014008;28;105242;-61
2022/11/19 09:23:53;;;;;;;4.20;3.80;;;;;;;7.36;100.00;95659.66;5014561;28;102004;-63
2022/11/19 09:26:22;;;;;;;3.97;3.57;;;;;;;7.33;100.00;95651.41;5032640;28;102003;-63
2022/11/19 09:28:50;;;;;;;5.80;4.00;;;;;;;7.40;100.00;95657.28;5013778;28;104128;-63
2022/11/19 09:31:20;;;;;;;4.03;3.63;;;;;;;7.44;100.00;95653.13;5014258;28;102475;-63
2022/11/19 09:34:12;;;;;;;3.40;3.13;;;;;;;7.51;100.00;95656.34;5014579;28;105221;-63
2022/11/19 09:36:41;;;;;;;3.40;3.20;;;;;;;7.61;100.00;95656.47;5017441;28;103986;-63
2022/11/19 09:39:08;;;;;;;3.57;3.27;;;;;;;7.73;100.00;95655.28;5014248;28;105241;-63
2022/11/19 09:42:28;;;;;;;4.00;3.60;;;;;;;7.78;100.00;95649.22;5013552;28;105752;-63
2022/11/19 09:45:13;;;;;;;3.63;3.33;;;;;;;7.82;100.00;95658.28;5048077;27;101704;-63
2022/11/19 09:48:04;;;;;;;3.23;3.03;;;;;;;7.95;100.00;95650.72;4991774;28;103662;-63
2022/11/19 09:50:44;;;;;;;3.73;3.33;;;;;;;7.99;100.00;95645.72;5023450;28;105367;-63
2022/11/19 09:53:42;;;;;;;3.17;2.97;;;;;;;8.19;100.00;95651.19;4990773;28;101903;-63
2022/11/19 09:56:16;;;;;;;3.30;3.00;;;;;;;8.16;100.00;95649.03;4992041;28;102345;-63
2022/11/19 09:58:45;;;;;;;3.13;2.93;;;;;;;8.54;100.00;95643.50;4991607;28;102652;-63
2022/11/19 10:01:14;;;;;;;3.43;3.23;;;;;;;8.70;100.00;95643.38;4995026;28;101841;-63
2022/11/19 10:03:48;;;;;;;3.13;2.83;;;;;;;8.75;100.00;95642.59;4991413;28;102058;-63
2022/11/19 10:06:30;;;;;;;3.60;3.10;;;;;;;8.66;100.00;95644.13;4990042;28;102005;-63
2022/11/19 10:09:15;;;;;;;2.90;2.70;;;;;;;8.72;100.00;95640.47;4991905;28;102896;-63
2022/11/19 10:12:03;;;;;;;3.17;2.87;;;;;;;8.93;100.00;95631.53;5021197;28;105449;-63
2022/11/19 10:14:47;;;;;;;2.83;2.53;;;;;;;8.76;100.00;95637.03;4987949;28;101884;-63
2022/11/19 10:17:26;;;;;;;2.53;2.33;;;;;;;8.78;100.00;95628.84;4990184;28;105189;-63
2022/11/19 10:20:06;;;;;;;2.50;2.30;;;;;;;8.75;100.00;95624.03;5022389;28;105474;-63
2022/11/19 10:23:01;;;;;;;2.80;2.60;;;;;;;8.79;100.00;95625.13;4991449;28;101738;-63
2022/11/19 10:25:36;;;;;;;2.50;2.30;;;;;;;8.95;100.00;95630.22;4993031;28;103614;-63
2022/11/19 10:28:13;;;;;;;2.20;2.10;;;;;;;8.95;100.00;95622.28;4990271;28;101813;-63
2022/11/19 10:30:42;;;;;;;3.47;2.30;;;;;;;9.05;100.00;95624.19;4990082;28;105129;-63
2022/11/19 10:33:21;;;;;;;2.47;2.27;;;;;;;9.18;100.00;95616.56;4989649;28;104586;-63
2022/11/19 10:39:20;;;;;;;2.23;2.03;;;;;;;9.54;100.00;95612.16;4991866;28;102045;-63
2022/11/19 10:42:21;;;;;;;2.20;2.10;;;;;;;9.62;100.00;95608.97;4990761;28;103119;-63
2022/11/19 10:44:54;;;;;;;1.97;1.80;;;;;;;9.71;100.00;95602.88;4990884;28;101861;-63
2022/11/19 10:47:26;;;;;;;2.30;2.03;;;;;;;10.07;100.00;95601.06;4989643;28;106730;-63
2022/11/19 10:49:54;;;;;;;2.40;1.30;;;;;;;9.78;100.00;95597.31;4994144;28;102501;-63
2022/11/19 10:52:31;;;;;;;1.27;1.10;;;;;;;9.79;100.00;95609.53;4991090;28;102343;-63
2022/11/19 10:55:04;;;;;;;1.70;1.10;;;;;;;9.91;100.00;95599.44;5005697;28;105358;-63
2022/11/19 10:57:33;;;;;;;1.13;1.10;;;;;;;9.67;100.00;95593.06;4989782;28;102048;-63
2022/11/19 11:00:01;;;;;;;1.40;1.30;;;;;;;9.67;100.00;95595.69;4990768;28;102408;-63
2022/11/19 11:02:38;;;;;;;1.87;1.40;;;;;;;9.80;100.00;95590.69;4990764;28;102449;-63
2022/11/19 11:05:11;;;;;;;2.10;2.00;;;;;;;9.69;100.00;95588.25;5006407;28;101871;-63
2022/11/19 11:07:55;;;;;;;2.70;2.50;;;;;;;9.63;100.00;95586.66;4988398;28;105124;-63
2022/11/19 11:10:43;;;;;;;2.30;1.60;;;;;;;9.68;100.00;95586.69;4989122;28;102776;-63
2022/11/19 11:16:22;;;;;;;1.70;1.60;;;;;;;9.80;100.00;95581.91;4990432;28;101901;-63
2022/11/19 11:18:50;;;;;;;1.30;1.30;;;;;;;9.85;100.00;95580.06;4989018;28;101877;-63
2022/11/19 11:21:38;;;;;;;1.60;1.50;;;;;;;9.95;100.00;95584.56;4990356;28;102598;-63
2022/11/19 11:24:07;;;;;;;1.43;1.40;;;;;;;9.78;100.00;95586.69;4988723;28;106582;-63
2022/11/19 11:26:36;;;;;;;1.60;1.50;;;;;;;9.87;100.00;95571.84;4990727;28;101837;-63
2022/11/19 11:29:07;;;;;;;2.03;1.93;;;;;;;9.84;100.00;95580.31;4988944;28;103653;-63
2022/11/19 11:31:51;;;;;;;2.20;2.00;;;;;;;9.84;100.00;95570.50;4990232;28;102769;-63
2022/11/19 11:34:29;;;;;;;2.67;1.40;;;;;;;9.67;100.00;95559.34;4989183;28;101823;-63
2022/11/19 11:37:34;;;;;;;1.30;1.10;;;;;;;9.48;100.00;95557.47;4992208;28;105678;-63
2022/11/19 11:40:01;;;;;;;0.90;0.90;;;;;;;9.41;100.00;95560.38;4990439;28;101825;-63
2022/11/19 11:42:33;;;;;;;0.60;0.60;;;;;;;9.38;100.00;95554.81;4989022;28;105366;-63
2022/11/19 11:45:01;;;;;;;0.60;0.60;;;;;;;9.47;100.00;95556.66;4990293;28;102692;-63
2022/11/19 11:47:31;;;;;;;0.87;0.73;;;;;;;9.52;100.00;95558.50;5024523;28;101930;-63
2022/11/19 11:50:07;;;;;;;1.20;0.70;;;;;;;9.49;100.00;95561.72;5011997;28;105627;-63
2022/11/19 11:53:18;;;;;;;1.03;0.70;;;;;;;9.56;100.00;95557.75;5045234;27;106725;-63
2022/11/19 11:55:45;;;;;;;0.67;0.67;;;;;;;9.58;100.00;95554.81;5045774;27;102014;-63
2022/11/19 11:58:27;;;;;;;0.80;0.80;;;;;;;9.69;100.00;95557.22;5015080;28;105598;-63
2022/11/19 12:00:56;;;;;;;1.83;0.90;;;;;;;9.76;100.00;95554.31;5030379;28;101687;-63
2022/11/19 12:03:26;;;;;;;0.80;0.80;;;;;;;9.74;100.00;95557.22;5012108;28;105798;-63
2022/11/19 12:06:17;;;;;;;2.23;1.17;;;;;;;10.00;100.00;95555.34;5029083;28;104323;-63
2022/11/19 12:08:53;;;;;;;1.20;0.90;;;;;;;10.49;100.00;95545.75;5030464;28;101744;-63
2022/11/19 12:11:26;;;;;;;1.00;0.90;;;;;;;11.04;100.00;95556.19;5029433;28;104109;-63
2022/11/19 12:14:03;;;;;;;1.37;1.10;;;;;;;10.95;100.00;95552.53;5028700;28;102686;-63
2022/11/19 12:16:44;;;;;;;0.70;0.70;;;;;;;10.72;100.00;95542.50;5012081;28;101849;-63
2022/11/19 12:19:31;;;;;;;1.83;1.40;;;;;;;10.82;100.00;95545.94;5011259;28;105720;-63
2022/11/19 12:22:07;;;;;;;0.93;0.93;;;;;;;10.29;100.00;95546.59;5032611;28;102836;-63
2022/11/19 12:24:56;;;;;;;1.60;1.30;;;;;;;10.14;100.00;95538.63;5030276;28;102574;-63
2022/11/19 12:27:34;;;;;;;1.30;1.20;;;;;;;9.94;100.00;95545.81;5029571;28;102593;-63
2022/11/19 12:30:09;;;;;;;1.10;1.10;;;;;;;9.86;100.00;95549.00;5011489;28;101967;-63
2022/11/19 12:36:12;;;;;;;1.60;1.20;;;;;;;9.75;100.00;95558.03;5009263;28;105865;-62
2022/11/19 12:38:50;;;;;;;1.47;1.00;;;;;;;9.79;100.00;95543.16;5029832;28;101860;-63
2022/11/19 12:41:29;;;;;;;0.80;0.80;;;;;;;9.79;100.00;95551.09;5026688;28;102980;-62